createdAt,value
2023-07-10T00:00:39.355Z,17.67
2023-07-10T00:01:42.060Z,17.68
2023-07-10T00:02:45.645Z,17.78
2023-07-10T00:03:48.196Z,17.89
2023-07-10T00:04:50.445Z,17.86
2023-07-10T00:05:52.707Z,17.76
2023-07-10T00:06:56.077Z,17.75
2023-07-10T00:07:58.294Z,17.73
2023-07-10T00:09:00.533Z,17.75
2023-07-10T00:10:03.026Z,17.67
2023-07-10T00:11:21.062Z,17.68
2023-07-10T00:12:24.469Z,17.72
2023-07-10T00:13:26.826Z,17.66
2023-07-10T00:14:31.106Z,17.66
2023-07-10T00:15:33.628Z,17.59
2023-07-10T00:16:36.256Z,17.64
2023-07-10T00:17:39.710Z,17.73
2023-07-10T00:18:42.640Z,17.70
2023-07-10T00:19:45.529Z,17.79
2023-07-10T00:20:49.290Z,17.69
2023-07-10T00:21:52.605Z,17.66
2023-07-10T00:22:55.208Z,17.66
2023-07-10T00:23:57.436Z,17.66
2023-07-10T00:24:59.774Z,17.67
2023-07-10T00:26:07.341Z,17.76
2023-07-10T00:27:13.201Z,17.74
2023-07-10T00:28:20.601Z,17.61
2023-07-10T00:29:30.813Z,17.60
2023-07-10T00:30:33.278Z,17.47
2023-07-10T00:31:35.882Z,17.49
2023-07-10T00:32:38.431Z,17.54
2023-07-10T00:33:40.714Z,17.43
2023-07-10T00:34:43.080Z,17.41
2023-07-10T00:35:47.161Z,17.44
2023-07-10T00:36:52.421Z,17.51
2023-07-10T00:38:04.084Z,17.59
2023-07-10T00:39:28.646Z,17.72
2023-07-10T00:40:33.656Z,17.65
2023-07-10T00:41:38.113Z,17.57
2023-07-10T00:42:40.545Z,17.51
2023-07-10T00:43:46.549Z,17.54
2023-07-10T00:44:58.103Z,17.55
2023-07-10T00:46:05.474Z,17.43
2023-07-10T00:47:11.572Z,17.32
2023-07-10T00:48:23.871Z,17.33
2023-07-10T00:49:38.905Z,17.32
2023-07-10T00:50:47.119Z,17.28
2023-07-10T00:51:59.434Z,17.26
2023-07-10T00:53:04.905Z,17.30
2023-07-10T00:54:10.892Z,17.32
2023-07-10T00:55:23.116Z,17.15
2023-07-10T00:56:29.480Z,17.19
2023-07-10T00:57:36.436Z,17.24
2023-07-10T00:58:42.908Z,17.31
2023-07-10T00:59:46.818Z,17.26
2023-07-10T01:01:05.492Z,17.24
2023-07-10T01:02:14.499Z,17.23
2023-07-10T01:03:17.463Z,17.29
2023-07-10T01:04:20.411Z,17.22
2023-07-10T01:05:24.602Z,17.12
2023-07-10T01:06:33.233Z,17.12
2023-07-10T01:07:44.584Z,17.04
2023-07-10T01:08:56.387Z,17.04
2023-07-10T01:10:03.711Z,16.98
2023-07-10T01:11:06.629Z,17.07
2023-07-10T01:12:09.800Z,17.06
2023-07-10T01:13:12.211Z,17.05
2023-07-10T01:14:15.891Z,16.99
2023-07-10T01:15:18.722Z,16.98
2023-07-10T01:16:22.944Z,17.04
2023-07-10T01:17:26.426Z,17.05
2023-07-10T01:18:29.880Z,17.05
2023-07-10T01:19:34.598Z,17.04
2023-07-10T01:20:40.891Z,17.14
2023-07-10T01:21:43.622Z,17.17
2023-07-10T01:22:46.235Z,17.24
2023-07-10T01:23:48.579Z,17.15
2023-07-10T01:24:53.340Z,17.06
2023-07-10T01:25:59.458Z,17.05
2023-07-10T01:27:06.807Z,17.01
2023-07-10T01:28:12.860Z,16.97
2023-07-10T01:30:55.853Z,17.07
2023-07-10T01:31:59.934Z,16.90
2023-07-10T01:33:02.792Z,16.89
2023-07-10T01:34:07.705Z,16.89
2023-07-10T01:35:13.849Z,16.89
2023-07-10T01:36:19.873Z,16.91
2023-07-10T01:37:23.478Z,16.95
2023-07-10T01:38:38.682Z,16.87
2023-07-10T01:39:44.067Z,16.79
2023-07-10T01:40:50.205Z,16.75
2023-07-10T01:41:52.534Z,16.80
2023-07-10T01:42:59.637Z,16.86
2023-07-10T01:44:07.204Z,16.89
2023-07-10T01:45:14.655Z,16.87
2023-07-10T01:46:20.044Z,16.76
2023-07-10T01:47:22.547Z,16.83
2023-07-10T01:48:28.728Z,16.96
2023-07-10T01:49:34.647Z,16.94
2023-07-10T01:50:38.374Z,16.89
2023-07-10T01:51:42.362Z,16.82
2023-07-10T01:52:45.018Z,16.75
2023-07-10T01:53:47.613Z,16.75
2023-07-10T01:54:50.837Z,16.70
2023-07-10T01:55:53.587Z,16.76
2023-07-10T01:56:57.965Z,16.82
2023-07-10T01:58:00.421Z,16.84
2023-07-10T01:59:02.882Z,16.86
2023-07-10T02:00:07.218Z,16.85
2023-07-10T02:01:11.506Z,16.88
2023-07-10T02:02:13.647Z,16.87
2023-07-10T02:03:16.162Z,16.83
2023-07-10T02:04:20.679Z,16.77
2023-07-10T02:05:22.824Z,16.84
2023-07-10T02:06:27.429Z,16.78
2023-07-10T02:07:29.864Z,16.83
2023-07-10T02:08:33.168Z,16.81
2023-07-10T02:09:35.675Z,16.81
2023-07-10T02:10:44.224Z,16.79
2023-07-10T02:11:42.882Z,16.89
2023-07-10T02:12:45.221Z,16.93
2023-07-10T02:13:47.611Z,16.95
2023-07-10T02:14:50.096Z,16.94
2023-07-10T02:15:52.691Z,16.96
2023-07-10T02:16:55.426Z,16.88
2023-07-10T02:17:58.312Z,16.93
2023-07-10T02:19:01.143Z,16.94
2023-07-10T02:20:06.181Z,16.91
2023-07-10T02:21:09.047Z,16.88
2023-07-10T02:22:12.016Z,16.92
2023-07-10T02:23:15.608Z,16.92
2023-07-10T02:24:18.656Z,16.99
2023-07-10T02:25:21.163Z,16.91
2023-07-10T02:26:24.703Z,16.90
2023-07-10T02:27:27.253Z,16.90
2023-07-10T02:28:30.470Z,16.64
2023-07-10T02:29:32.960Z,16.67
2023-07-10T02:30:40.739Z,16.61
2023-07-10T02:31:43.532Z,16.65
2023-07-10T02:32:46.114Z,16.63
2023-07-10T02:33:49.187Z,16.47
2023-07-10T02:34:51.452Z,16.49
2023-07-10T02:35:53.776Z,16.50
2023-07-10T02:36:56.358Z,16.56
2023-07-10T02:37:58.847Z,16.55
2023-07-10T02:39:01.414Z,16.61
2023-07-10T02:40:05.960Z,16.68
2023-07-10T02:41:09.841Z,16.68
2023-07-10T02:42:12.479Z,16.64
2023-07-10T02:43:15.041Z,16.54
2023-07-10T02:44:17.349Z,16.52
2023-07-10T02:45:20.391Z,16.50
2023-07-10T02:46:23.546Z,16.35
2023-07-10T02:47:26.038Z,16.35
2023-07-10T02:48:28.781Z,16.39
2023-07-10T02:49:31.563Z,16.46
2023-07-10T02:50:34.340Z,16.54
2023-07-10T02:51:36.981Z,16.57
2023-07-10T02:52:39.563Z,16.58
2023-07-10T02:53:44.129Z,16.56
2023-07-10T02:54:46.530Z,16.47
2023-07-10T02:55:48.903Z,16.50
2023-07-10T02:56:51.295Z,16.54
2023-07-10T02:57:53.927Z,16.41
2023-07-10T02:58:56.184Z,16.38
2023-07-10T02:59:58.563Z,16.35
2023-07-10T03:01:02.869Z,16.42
2023-07-10T03:02:06.324Z,16.48
2023-07-10T03:03:08.711Z,16.42
2023-07-10T03:04:11.068Z,16.41
2023-07-10T03:05:14.479Z,16.45
2023-07-10T03:06:17.252Z,16.35
2023-07-10T03:07:19.631Z,16.30
2023-07-10T03:08:23.812Z,16.39
2023-07-10T03:09:26.735Z,16.34
2023-07-10T03:10:29.340Z,16.39
2023-07-10T03:11:31.798Z,16.39
2023-07-10T03:12:34.066Z,16.44
2023-07-10T03:13:37.404Z,16.47
2023-07-10T03:14:39.664Z,16.47
2023-07-10T03:15:42.518Z,16.52
2023-07-10T03:16:45.058Z,16.47
2023-07-10T03:17:47.546Z,16.55
2023-07-10T03:18:52.025Z,16.59
2023-07-10T03:19:54.708Z,16.65
2023-07-10T03:20:57.937Z,16.66
2023-07-10T03:22:01.710Z,16.69
2023-07-10T03:23:05.198Z,16.70
2023-07-10T03:24:07.556Z,16.70
2023-07-10T03:25:10.192Z,16.75
2023-07-10T03:26:12.834Z,16.70
2023-07-10T03:27:14.887Z,16.58
2023-07-10T03:28:17.134Z,16.67
2023-07-10T03:29:19.522Z,16.62
2023-07-10T03:30:22.493Z,16.69
2023-07-10T03:31:25.844Z,16.71
2023-07-10T03:32:28.323Z,16.65
2023-07-10T03:33:30.852Z,16.74
2023-07-10T03:34:33.187Z,16.73
2023-07-10T03:35:35.581Z,16.85
2023-07-10T03:36:38.446Z,16.94
2023-07-10T03:37:40.621Z,17.01
2023-07-10T03:38:44.020Z,16.99
2023-07-10T03:39:46.240Z,16.93
2023-07-10T03:40:53.138Z,16.99
2023-07-10T03:41:55.741Z,17.02
2023-07-10T03:42:58.237Z,16.90
2023-07-10T03:44:01.865Z,16.88
2023-07-10T03:45:04.952Z,16.93
2023-07-10T03:46:07.737Z,16.94
2023-07-10T03:47:10.805Z,16.86
2023-07-10T03:48:13.072Z,16.85
2023-07-10T03:49:15.758Z,16.79
2023-07-10T03:50:18.578Z,16.88
2023-07-10T03:51:21.588Z,17.01
2023-07-10T03:52:24.509Z,17.02
2023-07-10T03:53:29.479Z,17.03
2023-07-10T03:54:36.603Z,17.03
2023-07-10T03:55:51.256Z,17.02
2023-07-10T03:56:53.871Z,17.06
2023-07-10T03:57:56.042Z,17.09
2023-07-10T03:58:58.973Z,17.09
2023-07-10T04:00:01.489Z,17.12
2023-07-10T04:01:04.219Z,17.15
2023-07-10T04:02:06.861Z,17.20
2023-07-10T04:03:09.405Z,17.25
2023-07-10T04:04:11.829Z,17.31
2023-07-10T04:05:14.203Z,17.38
2023-07-10T04:06:18.315Z,17.43
2023-07-10T04:07:21.701Z,17.40
2023-07-10T04:08:30.353Z,17.40
2023-07-10T04:09:33.020Z,17.44
2023-07-10T04:10:36.749Z,17.52
2023-07-10T04:11:39.285Z,17.54
2023-07-10T04:12:43.440Z,17.50
2023-07-10T04:13:47.744Z,17.50
2023-07-10T04:14:50.153Z,17.56
2023-07-10T04:16:01.297Z,17.61
2023-07-10T04:17:06.958Z,17.65
2023-07-10T04:18:10.540Z,17.72
2023-07-10T04:19:12.698Z,17.66
2023-07-10T04:20:15.282Z,17.72
2023-07-10T04:21:27.056Z,17.71
2023-07-10T04:22:29.402Z,17.73
2023-07-10T04:23:32.284Z,17.79
2023-07-10T04:24:36.468Z,17.84
2023-07-10T04:25:39.301Z,17.91
2023-07-10T04:26:41.958Z,17.87
2023-07-10T04:27:44.332Z,17.90
2023-07-10T04:28:48.943Z,17.95
2023-07-10T04:29:51.432Z,18.07
2023-07-10T04:30:54.591Z,18.09
2023-07-10T04:31:56.828Z,18.09
2023-07-10T04:32:59.194Z,18.11
2023-07-10T04:34:01.883Z,18.08
2023-07-10T04:35:04.967Z,18.08
2023-07-10T04:36:08.627Z,18.06
2023-07-10T04:37:10.969Z,18.12
2023-07-10T04:38:14.347Z,18.23
2023-07-10T04:39:16.923Z,18.28
2023-07-10T04:40:19.177Z,18.33
2023-07-10T04:41:23.842Z,18.39
2023-07-10T04:42:26.226Z,18.35
2023-07-10T04:45:04.829Z,18.45
2023-07-10T04:46:11.176Z,18.45
2023-07-10T04:47:13.509Z,18.42
2023-07-10T04:48:16.081Z,18.58
2023-07-10T04:49:20.288Z,18.58
2023-07-10T04:50:23.044Z,18.55
2023-07-10T04:51:26.489Z,18.51
2023-07-10T04:52:29.045Z,18.62
2023-07-10T04:53:33.321Z,18.62
2023-07-10T04:54:37.047Z,18.67
2023-07-10T04:55:39.426Z,18.68
2023-07-10T04:56:42.390Z,18.60
2023-07-10T04:57:44.952Z,18.61
2023-07-10T04:58:53.417Z,18.61
2023-07-10T04:59:55.923Z,18.58
2023-07-10T05:01:00.300Z,18.60
2023-07-10T05:02:03.910Z,18.62
2023-07-10T05:03:07.169Z,18.67
2023-07-10T05:04:10.720Z,18.71
2023-07-10T05:05:13.239Z,18.74
2023-07-10T05:06:16.215Z,18.69
2023-07-10T05:07:18.707Z,18.70
2023-07-10T05:08:22.994Z,18.72
2023-07-10T05:09:25.299Z,18.77
2023-07-10T05:10:28.970Z,18.76
2023-07-10T05:11:32.392Z,18.82
2023-07-10T05:12:35.111Z,18.76
2023-07-10T05:13:37.573Z,18.73
2023-07-10T05:14:40.169Z,18.77
2023-07-10T05:15:42.336Z,18.82
2023-07-10T05:16:45.516Z,18.78
2023-07-10T05:17:48.404Z,18.80
2023-07-10T05:18:50.672Z,18.83
2023-07-10T05:19:54.098Z,18.85
2023-07-10T05:20:59.142Z,18.87
2023-07-10T05:22:02.621Z,18.96
2023-07-10T05:23:04.985Z,19.01
2023-07-10T05:24:08.526Z,19.13
2023-07-10T05:25:11.151Z,19.18
2023-07-10T05:26:16.709Z,19.12
2023-07-10T05:27:18.761Z,19.09
2023-07-10T05:28:20.911Z,19.16
2023-07-10T05:29:23.721Z,19.18
2023-07-10T05:30:26.098Z,19.14
2023-07-10T05:31:28.427Z,19.23
2023-07-10T05:32:31.382Z,19.19
2023-07-10T05:33:34.011Z,19.22
2023-07-10T05:34:36.513Z,19.14
2023-07-10T05:35:42.427Z,19.12
2023-07-10T05:36:46.050Z,19.22
2023-07-10T05:37:49.694Z,19.31
2023-07-10T05:38:53.574Z,19.37
2023-07-10T05:39:57.221Z,19.43
2023-07-10T05:41:00.594Z,19.33
2023-07-10T05:42:03.437Z,19.26
2023-07-10T05:43:05.775Z,19.27
2023-07-10T05:44:08.281Z,19.33
2023-07-10T05:45:11.861Z,19.35
2023-07-10T05:46:16.619Z,19.30
2023-07-10T05:47:20.211Z,19.41
2023-07-10T05:48:22.950Z,19.44
2023-07-10T05:49:26.352Z,19.51
2023-07-10T05:50:29.848Z,19.58
2023-07-10T05:51:32.251Z,19.61
2023-07-10T05:52:34.640Z,19.66
2023-07-10T05:53:37.858Z,19.72
2023-07-10T05:54:41.419Z,19.68
2023-07-10T05:55:48.483Z,19.70
2023-07-10T05:56:52.629Z,19.77
2023-07-10T05:57:55.401Z,19.80
2023-07-10T05:58:57.623Z,19.86
2023-07-10T05:59:59.907Z,19.89
2023-07-10T06:01:03.452Z,20.05
2023-07-10T06:02:11.396Z,20.07
2023-07-10T06:03:15.254Z,20.20
2023-07-10T06:04:27.281Z,20.21
2023-07-10T06:05:25.198Z,20.06
2023-07-10T06:06:28.591Z,19.98
2023-07-10T06:07:31.892Z,19.90
2023-07-10T06:08:37.050Z,19.91
2023-07-10T06:09:40.119Z,20.00
2023-07-10T06:10:42.775Z,20.09
2023-07-10T06:11:46.270Z,20.05
2023-07-10T06:12:48.609Z,20.04
2023-07-10T06:13:51.282Z,20.06
2023-07-10T06:14:54.517Z,20.08
2023-07-10T06:16:00.409Z,20.12
2023-07-10T06:17:02.854Z,20.12
2023-07-10T06:18:05.301Z,20.08
2023-07-10T06:19:07.666Z,20.10
2023-07-10T06:20:11.128Z,20.20
2023-07-10T06:21:14.541Z,20.14
2023-07-10T06:22:16.788Z,20.10
2023-07-10T06:23:20.634Z,20.20
2023-07-10T06:24:23.024Z,20.19
2023-07-10T06:25:25.394Z,20.00
2023-07-10T06:26:28.591Z,20.05
2023-07-10T06:27:31.272Z,20.13
2023-07-10T06:28:35.722Z,20.20
2023-07-10T06:29:38.702Z,20.21
2023-07-10T06:30:48.130Z,20.29
2023-07-10T06:31:51.186Z,20.27
2023-07-10T06:32:54.810Z,20.20
2023-07-10T06:33:58.270Z,20.18
2023-07-10T06:35:00.733Z,20.14
2023-07-10T06:36:05.337Z,20.14
2023-07-10T06:37:09.195Z,20.15
2023-07-10T06:38:11.927Z,20.24
2023-07-10T06:39:14.789Z,20.25
2023-07-10T06:40:17.444Z,20.24
2023-07-10T06:41:20.537Z,20.38
2023-07-10T06:42:22.938Z,20.38
2023-07-10T06:43:26.323Z,20.32
2023-07-10T06:44:28.857Z,20.41
2023-07-10T06:45:31.131Z,20.41
2023-07-10T06:46:34.109Z,20.41
2023-07-10T06:47:42.152Z,20.42
2023-07-10T06:48:45.826Z,20.51
2023-07-10T06:49:48.097Z,20.55
2023-07-10T06:50:55.202Z,20.55
2023-07-10T06:51:57.352Z,20.63
2023-07-10T06:53:05.414Z,20.67
2023-07-10T06:54:04.492Z,20.75
2023-07-10T06:55:09.885Z,20.62
2023-07-10T06:56:13.614Z,20.58
2023-07-10T06:57:16.579Z,20.62
2023-07-10T06:58:19.465Z,20.65
2023-07-10T06:59:22.195Z,20.55
2023-07-10T07:00:25.408Z,20.62
2023-07-10T07:01:27.871Z,20.86
2023-07-10T07:02:30.814Z,20.59
2023-07-10T07:03:34.305Z,20.59
2023-07-10T07:04:37.104Z,20.65
2023-07-10T07:05:43.272Z,20.58
2023-07-10T07:06:47.786Z,20.49
2023-07-10T07:07:51.258Z,20.46
2023-07-10T07:08:53.773Z,20.46
2023-07-10T07:09:57.069Z,20.47
2023-07-10T07:11:00.510Z,20.48
2023-07-10T07:12:02.831Z,20.52
2023-07-10T07:13:05.589Z,20.53
2023-07-10T07:14:07.961Z,20.45
2023-07-10T07:15:12.343Z,20.52
2023-07-10T07:16:15.054Z,20.55
2023-07-10T07:17:18.216Z,20.53
2023-07-10T07:18:26.680Z,20.63
2023-07-10T07:19:28.845Z,20.59
2023-07-10T07:20:34.796Z,20.64
2023-07-10T07:21:37.379Z,20.64
2023-07-10T07:22:42.358Z,20.59
2023-07-10T07:23:49.704Z,20.70
2023-07-10T07:24:53.232Z,20.79
2023-07-10T07:25:58.216Z,20.76
2023-07-10T07:27:00.869Z,20.79
2023-07-10T07:28:04.219Z,20.92
2023-07-10T07:29:06.734Z,20.84
2023-07-10T07:30:11.688Z,20.84
2023-07-10T07:31:14.241Z,20.73
2023-07-10T07:32:16.690Z,20.73
2023-07-10T07:33:20.914Z,20.85
2023-07-10T07:34:24.440Z,20.86
2023-07-10T07:35:28.178Z,20.87
2023-07-10T07:36:32.661Z,20.81
2023-07-10T07:37:35.470Z,20.87
2023-07-10T07:38:37.910Z,20.97
2023-07-10T07:39:41.198Z,20.92
2023-07-10T07:40:44.001Z,20.89
2023-07-10T07:41:46.690Z,20.89
2023-07-10T07:42:49.196Z,20.90
2023-07-10T07:43:51.570Z,21.00
2023-07-10T07:44:55.393Z,21.06
2023-07-10T07:45:58.880Z,21.06
2023-07-10T07:47:01.692Z,21.03
2023-07-10T07:48:04.852Z,21.09
2023-07-10T07:49:07.226Z,21.02
2023-07-10T07:50:10.692Z,21.00
2023-07-10T07:51:13.442Z,21.04
2023-07-10T07:52:15.739Z,20.84
2023-07-10T07:53:19.084Z,20.88
2023-07-10T07:54:22.486Z,20.83
2023-07-10T07:55:24.936Z,20.86
2023-07-10T07:56:28.438Z,20.89
2023-07-10T07:57:31.280Z,20.90
2023-07-10T07:58:34.262Z,21.00
2023-07-10T07:59:36.593Z,21.09
2023-07-10T08:00:40.137Z,21.21
2023-07-10T08:01:44.996Z,21.23
2023-07-10T08:02:47.498Z,21.19
2023-07-10T08:03:50.531Z,21.25
2023-07-10T08:04:54.170Z,21.19
2023-07-10T08:05:56.946Z,21.21
2023-07-10T08:06:59.218Z,21.35
2023-07-10T08:08:01.742Z,21.43
2023-07-10T08:09:04.502Z,21.22
2023-07-10T08:10:08.885Z,21.18
2023-07-10T08:11:11.401Z,21.27
2023-07-10T08:12:13.683Z,21.20
2023-07-10T08:13:17.852Z,21.20
2023-07-10T08:14:20.642Z,21.30
2023-07-10T08:15:22.985Z,21.36
2023-07-10T08:16:25.719Z,21.38
2023-07-10T08:17:28.113Z,21.40
2023-07-10T08:18:30.471Z,21.49
2023-07-10T08:19:32.822Z,21.43
2023-07-10T08:20:37.014Z,21.53
2023-07-10T08:21:39.506Z,21.53
2023-07-10T08:22:42.359Z,21.58
2023-07-10T08:23:44.781Z,21.54
2023-07-10T08:24:46.912Z,21.74
2023-07-10T08:25:49.100Z,21.80
2023-07-10T08:26:52.153Z,21.68
2023-07-10T08:27:55.181Z,21.79
2023-07-10T08:28:57.504Z,21.76
2023-07-10T08:30:01.677Z,21.67
2023-07-10T08:31:05.035Z,21.73
2023-07-10T08:32:08.940Z,21.71
2023-07-10T08:33:11.697Z,21.79
2023-07-10T08:34:14.252Z,21.84
2023-07-10T08:35:16.671Z,21.95
2023-07-10T08:36:20.128Z,21.66
2023-07-10T08:37:22.465Z,21.41
2023-07-10T08:38:25.033Z,21.58
2023-07-10T08:39:27.997Z,21.80
2023-07-10T08:40:33.340Z,21.72
2023-07-10T08:41:35.878Z,21.68
2023-07-10T08:42:40.349Z,21.77
2023-07-10T08:43:44.817Z,21.80
2023-07-10T08:44:50.052Z,21.93
2023-07-10T08:45:56.119Z,22.05
2023-07-10T08:47:02.317Z,22.06
2023-07-10T08:49:39.596Z,22.10
2023-07-10T08:50:43.837Z,21.93
2023-07-10T08:51:55.436Z,21.93
2023-07-10T08:53:13.440Z,22.00
2023-07-10T08:54:19.150Z,21.98
2023-07-10T08:55:28.607Z,21.81
2023-07-10T08:56:35.927Z,22.06
2023-07-10T08:58:41.751Z,22.12
2023-07-10T08:59:53.590Z,22.25
2023-07-10T09:00:59.750Z,22.37
2023-07-10T09:02:03.561Z,22.13
2023-07-10T09:03:09.702Z,22.12
2023-07-10T09:04:15.513Z,21.77
2023-07-10T09:05:24.711Z,21.85
2023-07-10T09:06:40.905Z,21.70
2023-07-10T09:07:45.143Z,21.72
2023-07-10T09:08:51.288Z,21.92
2023-07-10T09:09:57.699Z,22.04
2023-07-10T09:11:04.229Z,22.17
2023-07-10T09:12:18.292Z,22.25
2023-07-10T09:13:43.945Z,22.36
2023-07-10T09:14:55.959Z,22.52
2023-07-10T09:16:00.489Z,22.63
2023-07-10T09:17:06.011Z,22.70
2023-07-10T09:18:27.281Z,22.65
2023-07-10T09:19:32.555Z,22.56
2023-07-10T09:20:37.137Z,22.73
2023-07-10T09:21:42.005Z,22.72
2023-07-10T09:22:48.925Z,22.63
2023-07-10T09:23:52.700Z,22.47
2023-07-10T09:24:55.268Z,22.22
2023-07-10T09:26:04.894Z,22.31
2023-07-10T09:27:11.631Z,22.41
2023-07-10T09:28:14.313Z,22.47
2023-07-10T09:29:26.740Z,22.58
2023-07-10T09:30:42.829Z,22.59
2023-07-10T09:31:58.085Z,22.70
2023-07-10T09:33:06.526Z,22.92
2023-07-10T09:34:11.632Z,22.94
2023-07-10T09:35:19.666Z,22.89
2023-07-10T09:36:22.565Z,22.81
2023-07-10T09:37:37.088Z,22.68
2023-07-10T09:38:42.859Z,22.62
2023-07-10T09:39:45.477Z,22.57
2023-07-10T09:40:50.894Z,22.56
2023-07-10T09:41:53.750Z,22.51
2023-07-10T09:42:59.635Z,22.50
2023-07-10T09:44:18.339Z,22.56
2023-07-10T09:45:22.804Z,22.36
2023-07-10T09:46:31.259Z,22.24
2023-07-10T09:47:39.610Z,22.08
2023-07-10T09:48:41.976Z,21.97
2023-07-10T09:49:48.354Z,21.89
2023-07-10T09:50:53.836Z,21.89
2023-07-10T09:51:59.926Z,21.82
2023-07-10T09:53:02.379Z,21.83
2023-07-10T09:54:08.227Z,21.84
2023-07-10T09:55:16.766Z,21.94
2023-07-10T09:56:29.094Z,22.02
2023-07-10T09:57:31.843Z,22.23
2023-07-10T09:58:38.470Z,22.30
2023-07-10T09:59:53.465Z,22.33
2023-07-10T10:01:01.313Z,22.50
2023-07-10T10:02:16.713Z,22.60
2023-07-10T10:03:27.716Z,22.64
2023-07-10T10:04:34.806Z,22.78
2023-07-10T10:05:40.561Z,23.10
2023-07-10T10:06:44.889Z,23.35
2023-07-10T10:07:52.573Z,23.56
2023-07-10T10:08:55.903Z,23.66
2023-07-10T10:11:47.696Z,23.63
2023-07-10T10:13:05.993Z,23.52
2023-07-10T10:14:14.278Z,23.27
2023-07-10T10:15:33.296Z,23.11
2023-07-10T10:16:48.354Z,22.96
2023-07-10T10:17:51.600Z,22.71
2023-07-10T10:20:42.251Z,22.85
2023-07-10T10:21:46.002Z,22.65
2023-07-10T10:22:49.061Z,22.80
2023-07-10T10:23:55.074Z,22.87
2023-07-10T10:24:57.551Z,23.06
2023-07-10T10:26:20.295Z,23.12
2023-07-10T10:27:30.035Z,23.21
2023-07-10T10:28:43.016Z,23.41
2023-07-10T10:31:15.433Z,23.58
2023-07-10T10:32:36.756Z,23.56
2023-07-10T10:33:42.806Z,23.59
2023-07-10T10:34:55.866Z,23.45
2023-07-10T10:36:01.572Z,23.37
2023-07-10T10:37:29.425Z,23.37
2023-07-10T10:38:41.244Z,23.41
2023-07-10T10:39:47.769Z,23.23
2023-07-10T10:41:01.746Z,23.30
2023-07-10T10:43:22.148Z,23.44
2023-07-10T10:44:34.247Z,23.53
2023-07-10T10:45:46.062Z,23.66
2023-07-10T10:47:07.580Z,23.66
2023-07-10T10:48:29.828Z,23.76
2023-07-10T10:49:56.346Z,23.91
2023-07-10T10:51:05.351Z,23.99
2023-07-10T10:52:20.620Z,23.80
2023-07-10T10:53:36.601Z,23.69
2023-07-10T10:55:01.050Z,23.41
2023-07-10T10:56:22.549Z,23.39
2023-07-10T10:57:35.556Z,23.43
2023-07-10T10:58:45.331Z,23.54
2023-07-10T11:00:06.555Z,23.59
2023-07-10T11:01:15.701Z,23.58
2023-07-10T11:02:38.680Z,23.68
2023-07-10T11:03:50.759Z,23.75
2023-07-10T11:04:59.590Z,23.82
2023-07-10T11:06:25.761Z,23.87
2023-07-10T11:08:43.746Z,23.88
2023-07-10T11:09:52.753Z,23.76
2023-07-10T11:10:58.036Z,23.82
2023-07-10T11:12:03.971Z,23.79
2023-07-10T11:13:10.409Z,23.71
2023-07-10T11:14:13.646Z,23.70
2023-07-10T11:15:19.377Z,23.68
2023-07-10T11:16:23.568Z,23.86
2023-07-10T11:17:26.857Z,24.06
2023-07-10T11:18:30.071Z,24.29
2023-07-10T11:19:33.844Z,24.29
2023-07-10T11:20:37.488Z,24.16
2023-07-10T11:21:41.921Z,24.01
2023-07-10T11:24:17.614Z,24.45
2023-07-10T11:25:29.193Z,24.38
2023-07-10T11:26:32.218Z,24.53
2023-07-10T11:27:37.542Z,24.52
2023-07-10T11:29:07.601Z,24.62
2023-07-10T11:30:16.332Z,24.63
2023-07-10T11:31:31.710Z,24.48
2023-07-10T11:32:38.229Z,24.43
2023-07-10T11:33:43.714Z,24.15
2023-07-10T11:34:50.206Z,24.32
2023-07-10T11:36:14.039Z,24.38
2023-07-10T11:37:37.545Z,24.54
2023-07-10T11:39:00.680Z,24.83
2023-07-10T11:40:26.563Z,24.68
2023-07-10T11:41:32.136Z,24.78
2023-07-10T11:42:34.903Z,25.06
2023-07-10T11:43:41.224Z,24.95
2023-07-10T11:44:48.411Z,24.93
2023-07-10T11:47:11.905Z,24.79
2023-07-10T11:48:34.995Z,24.38
2023-07-10T11:49:57.567Z,24.54
2023-07-10T11:51:03.405Z,24.15
2023-07-10T11:52:17.762Z,24.05
2023-07-10T11:53:24.461Z,24.05
2023-07-10T11:54:38.554Z,23.91
2023-07-10T11:55:56.846Z,24.06
2023-07-10T11:57:11.637Z,23.98
2023-07-10T11:59:51.463Z,24.31
2023-07-10T12:01:02.195Z,24.28
2023-07-10T12:03:30.294Z,24.16
2023-07-10T12:04:32.670Z,24.14
2023-07-10T12:05:38.918Z,24.44
2023-07-10T12:06:46.498Z,24.75
2023-07-10T12:08:08.046Z,24.73
2023-07-10T12:09:11.319Z,24.67
2023-07-10T12:10:14.940Z,24.59
2023-07-10T12:11:36.300Z,24.69
2023-07-10T12:12:38.689Z,24.26
2023-07-10T12:13:41.540Z,23.93
2023-07-10T12:14:45.219Z,23.83
2023-07-10T12:15:50.185Z,23.98
2023-07-10T12:17:18.399Z,23.96
2023-07-10T12:18:01.252Z,23.76
2023-07-10T12:19:16.916Z,23.71
2023-07-10T12:20:29.351Z,23.65
2023-07-10T12:21:31.551Z,23.98
2023-07-10T12:22:37.706Z,24.05
2023-07-10T12:24:00.943Z,23.91
2023-07-10T12:25:08.321Z,24.24
2023-07-10T12:26:14.824Z,24.74
2023-07-10T12:28:17.990Z,25.08
2023-07-10T12:28:28.527Z,24.98
2023-07-10T12:29:31.181Z,24.56
2023-07-10T12:30:34.828Z,24.83
2023-07-10T12:31:39.699Z,25.03
2023-07-10T12:32:43.828Z,24.95
2023-07-10T12:33:50.192Z,24.80
2023-07-10T12:34:55.338Z,24.24
2023-07-10T12:36:05.512Z,24.13
2023-07-10T12:37:10.854Z,24.04
2023-07-10T12:38:13.580Z,24.13
2023-07-10T12:39:16.284Z,23.99
2023-07-10T12:40:19.701Z,23.81
2023-07-10T12:41:24.874Z,23.77
2023-07-10T12:42:33.609Z,23.23
2023-07-10T12:43:36.400Z,22.69
2023-07-10T12:44:42.713Z,21.66
2023-07-10T12:45:45.615Z,20.42
2023-07-10T12:46:57.324Z,19.51
2023-07-10T12:48:15.015Z,18.81
2023-07-10T12:49:20.193Z,17.82
2023-07-10T12:50:26.299Z,17.50
2023-07-10T12:51:33.007Z,17.23
2023-07-10T12:52:40.670Z,17.12
2023-07-10T12:53:44.395Z,17.51
2023-07-10T12:54:50.622Z,17.50
2023-07-10T12:56:08.881Z,17.66
2023-07-10T12:57:01.576Z,17.90
2023-07-10T12:58:05.284Z,18.23
2023-07-10T12:59:14.965Z,18.54
2023-07-10T13:00:19.633Z,18.82
2023-07-10T13:01:26.246Z,19.13
2023-07-10T13:02:32.551Z,19.32
2023-07-10T13:03:35.963Z,19.78
2023-07-10T13:04:44.271Z,20.20
2023-07-10T13:05:52.424Z,20.56
2023-07-10T13:07:28.481Z,21.13
2023-07-10T13:08:14.595Z,21.60
2023-07-10T13:09:23.917Z,21.94
2023-07-10T13:10:32.042Z,22.36
2023-07-10T13:12:41.206Z,22.87
2023-07-10T13:13:45.433Z,23.13
2023-07-10T13:14:48.617Z,23.20
2023-07-10T13:15:50.909Z,23.17
2023-07-10T13:16:53.722Z,23.09
2023-07-10T13:17:57.319Z,22.92
2023-07-10T13:18:59.879Z,22.75
2023-07-10T13:20:09.748Z,22.45
2023-07-10T13:21:12.306Z,22.31
2023-07-10T13:22:15.043Z,22.25
2023-07-10T13:23:18.157Z,22.23
2023-07-10T13:24:20.558Z,22.42
2023-07-10T13:25:24.237Z,22.76
2023-07-10T13:26:26.693Z,22.88
2023-07-10T13:27:29.058Z,23.01
2023-07-10T13:28:48.443Z,23.29
2023-07-10T13:29:36.452Z,23.69
2023-07-10T13:30:38.976Z,24.00
2023-07-10T13:31:42.891Z,24.06
2023-07-10T13:32:46.676Z,24.04
2023-07-10T13:33:49.770Z,24.05
2023-07-10T13:34:52.497Z,23.92
2023-07-10T13:35:58.205Z,23.14
2023-07-10T13:37:01.253Z,23.14
2023-07-10T13:38:08.149Z,22.99
2023-07-10T13:39:14.158Z,22.82
2023-07-10T13:40:23.248Z,22.77
2023-07-10T13:41:28.509Z,22.74
2023-07-10T13:42:30.843Z,22.69
2023-07-10T13:43:33.667Z,22.72
2023-07-10T13:44:36.013Z,22.81
2023-07-10T13:45:39.794Z,23.00
2023-07-10T13:46:45.706Z,23.38
2023-07-10T13:47:50.293Z,23.83
2023-07-10T13:48:55.950Z,24.34
2023-07-10T13:50:00.141Z,24.70
2023-07-10T13:51:02.365Z,25.14
2023-07-10T13:52:06.700Z,25.59
2023-07-10T13:53:15.288Z,25.96
2023-07-10T13:54:18.899Z,26.18
2023-07-10T13:55:23.282Z,26.41
2023-07-10T13:56:29.534Z,26.32
2023-07-10T13:57:31.878Z,25.88
2023-07-10T13:58:34.027Z,25.18
2023-07-10T13:59:37.380Z,25.07
2023-07-10T14:00:40.011Z,24.52
2023-07-10T14:01:42.735Z,24.39
2023-07-10T14:02:47.832Z,24.22
2023-07-10T14:03:50.769Z,24.16
2023-07-10T14:04:59.955Z,24.00
2023-07-10T14:06:02.923Z,23.89
2023-07-10T14:07:08.909Z,23.86
2023-07-10T14:08:24.187Z,23.83
2023-07-10T14:09:30.076Z,23.83
2023-07-10T14:10:35.151Z,23.79
2023-07-10T14:11:38.928Z,23.84
2023-07-10T14:12:42.665Z,23.85
2023-07-10T14:13:45.795Z,23.84
2023-07-10T14:14:49.201Z,23.90
2023-07-10T14:16:00.966Z,23.81
2023-07-10T14:17:05.582Z,23.69
2023-07-10T14:18:18.771Z,23.47
2023-07-10T14:19:23.943Z,23.20
2023-07-10T14:20:30.885Z,23.01
2023-07-10T14:21:34.380Z,22.96